Terminal Aerodrome Forecast
Issued by NWS

Home | Current Version | Previous Version | Text Only | Print | Product List | Glossary On
Versions: 1 2 3 4 5 6 7 8 9 10 11 12 13 14 15 16 17 18 19 20 21 22 23 24 25 26 27 28
000
FTUS42 KMLB 160524
TAFISM
TAF
KISM 160524Z 1606/1706 08003KT P6SM FEW020 BKN250
     FM161400 14005KT P6SM SCT025 BKN035
     FM161800 15006KT P6SM VCTS SCT030CB BKN050
      TEMPO 1619/1622 3SM TSRA BKN030CB
     FM162300 14004KT P6SM FEW030 SCT060 BKN120=

USA.gov is the U.S. government's official web portal to all federal, state and local government web resources and services.